sensor_id;sensor_type;location;lat;lon;timestamp;temperature;humidity
21335;DHT22;69435;52.670;13.544;2023-04-23T00:02:06;15.50;42.00
21335;DHT22;69435;52.670;13.544;2023-04-23T00:05:37;15.40;43.20
21335;DHT22;69435;52.670;13.544;2023-04-23T00:12:27;15.20;43.30
21335;DHT22;69435;52.670;13.544;2023-04-23T00:15:17;15.10;44.10
21335;DHT22;69435;52.670;13.544;2023-04-23T00:18:06;15.00;43.90
21335;DHT22;69435;52.670;13.544;2023-04-23T00:20:52;15.00;43.90
21335;DHT22;69435;52.670;13.544;2023-04-23T00:23:38;15.00;44.60
21335;DHT22;69435;52.670;13.544;2023-04-23T00:26:25;14.90;44.30
21335;DHT22;69435;52.670;13.544;2023-04-23T00:29:51;14.80;44.00
21335;DHT22;69435;52.670;13.544;2023-04-23T00:32:50;14.80;44.90
21335;DHT22;69435;52.670;13.544;2023-04-23T00:35:48;14.80;44.70
21335;DHT22;69435;52.670;13.544;2023-04-23T00:38:50;14.80;44.50
21335;DHT22;69435;52.670;13.544;2023-04-23T00:41:41;14.80;44.30
21335;DHT22;69435;52.670;13.544;2023-04-23T00:44:30;14.80;44.40
21335;DHT22;69435;52.670;13.544;2023-04-23T00:47:23;14.70;44.70
21335;DHT22;69435;52.670;13.544;2023-04-23T00:50:13;14.80;44.50
21335;DHT22;69435;52.670;13.544;2023-04-23T00:57:26;14.80;44.10
21335;DHT22;69435;52.670;13.544;2023-04-23T01:00:28;14.80;45.00
21335;DHT22;69435;52.670;13.544;2023-04-23T01:03:16;14.90;43.90
21335;DHT22;69435;52.670;13.544;2023-04-23T01:06:18;14.90;44.00
21335;DHT22;69435;52.670;13.544;2023-04-23T01:09:15;15.00;43.50
21335;DHT22;69435;52.670;13.544;2023-04-23T01:12:27;15.10;43.30
21335;DHT22;69435;52.670;13.544;2023-04-23T01:15:32;15.20;43.10
21335;DHT22;69435;52.670;13.544;2023-04-23T01:18:23;15.20;42.70
21335;DHT22;69435;52.670;13.544;2023-04-23T01:24:59;15.30;42.60
21335;DHT22;69435;52.670;13.544;2023-04-23T01:36:28;15.50;41.70
21335;DHT22;69435;52.670;13.544;2023-04-23T01:43:16;15.60;42.00
21335;DHT22;69435;52.670;13.544;2023-04-23T01:46:05;15.60;42.90
21335;DHT22;69435;52.670;13.544;2023-04-23T01:48:57;15.70;42.10
21335;DHT22;69435;52.670;13.544;2023-04-23T01:51:47;15.60;42.00
21335;DHT22;69435;52.670;13.544;2023-04-23T02:35:11;15.70;46.30
21335;DHT22;69435;52.670;13.544;2023-04-23T07:37:02;17.80;59.70
21335;DHT22;69435;52.670;13.544;2023-04-23T08:03:36;16.40;66.40
21335;DHT22;69435;52.670;13.544;2023-04-23T08:06:22;16.30;66.90
21335;DHT22;69435;52.670;13.544;2023-04-23T08:09:11;16.40;67.20
21335;DHT22;69435;52.670;13.544;2023-04-23T08:11:57;16.40;67.70
21335;DHT22;69435;52.670;13.544;2023-04-23T08:20:45;16.50;67.90
21335;DHT22;69435;52.670;13.544;2023-04-23T08:23:54;16.60;68.10
21335;DHT22;69435;52.670;13.544;2023-04-23T08:26:41;16.60;68.20
21335;DHT22;69435;52.670;13.544;2023-04-23T08:29:26;16.60;68.30
21335;DHT22;69435;52.670;13.544;2023-04-23T08:32:14;16.60;68.10
21335;DHT22;69435;52.670;13.544;2023-04-23T08:35:00;16.60;68.40
21335;DHT22;69435;52.670;13.544;2023-04-23T08:37:47;16.60;68.40
21335;DHT22;69435;52.670;13.544;2023-04-23T08:40:35;16.60;68.60
21335;DHT22;69435;52.670;13.544;2023-04-23T08:43:31;16.60;68.50
21335;DHT22;69435;52.670;13.544;2023-04-23T08:46:23;16.50;68.50
21335;DHT22;69435;52.670;13.544;2023-04-23T08:49:16;16.50;68.80
21335;DHT22;69435;52.670;13.544;2023-04-23T08:52:13;16.50;69.00
21335;DHT22;69435;52.670;13.544;2023-04-23T08:55:09;16.60;69.20
21335;DHT22;69435;52.670;13.544;2023-04-23T08:57:57;16.60;68.80
21335;DHT22;69435;52.670;13.544;2023-04-23T09:03:43;16.70;68.90
21335;DHT22;69435;52.670;13.544;2023-04-23T09:11:31;17.00;69.20
21335;DHT22;69435;52.670;13.544;2023-04-23T09:16:53;17.30;68.60
21335;DHT22;69435;52.670;13.544;2023-04-23T09:46:06;17.30;65.80
21335;DHT22;69435;52.670;13.544;2023-04-23T09:48:55;17.20;66.20
21335;DHT22;69435;52.670;13.544;2023-04-23T09:54:21;16.90;66.90
21335;DHT22;69435;52.670;13.544;2023-04-23T09:57:18;16.80;67.50
21335;DHT22;69435;52.670;13.544;2023-04-23T10:00:20;16.60;68.10
21335;DHT22;69435;52.670;13.544;2023-04-23T10:03:10;16.50;68.60
21335;DHT22;69435;52.670;13.544;2023-04-23T10:11:32;16.20;68.40
21335;DHT22;69435;52.670;13.544;2023-04-23T10:17:00;16.00;69.10
21335;DHT22;69435;52.670;13.544;2023-04-23T10:22:38;15.90;68.90
21335;DHT22;69435;52.670;13.544;2023-04-23T10:25:32;15.90;68.60
21335;DHT22;69435;52.670;13.544;2023-04-23T10:28:32;15.90;69.20
21335;DHT22;69435;52.670;13.544;2023-04-23T10:31:31;15.90;68.90
21335;DHT22;69435;52.670;13.544;2023-04-23T10:37:02;15.80;68.40
21335;DHT22;69435;52.670;13.544;2023-04-23T10:39:52;15.80;69.10
21335;DHT22;69435;52.670;13.544;2023-04-23T10:42:43;15.80;69.60
21335;DHT22;69435;52.670;13.544;2023-04-23T10:45:31;15.80;69.10
21335;DHT22;69435;52.670;13.544;2023-04-23T10:48:17;15.80;69.20
21335;DHT22;69435;52.670;13.544;2023-04-23T10:51:04;15.90;70.20
21335;DHT22;69435;52.670;13.544;2023-04-23T10:53:51;16.10;69.40
21335;DHT22;69435;52.670;13.544;2023-04-23T10:59:20;16.40;68.50
21335;DHT22;69435;52.670;13.544;2023-04-23T11:04:53;16.80;66.30
21335;DHT22;69435;52.670;13.544;2023-04-23T11:07:41;17.00;65.60
21335;DHT22;69435;52.670;13.544;2023-04-23T11:10:27;17.20;65.60
21335;DHT22;69435;52.670;13.544;2023-04-23T11:13:21;17.30;65.40
21335;DHT22;69435;52.670;13.544;2023-04-23T11:16:36;17.50;65.10
21335;DHT22;69435;52.670;13.544;2023-04-23T11:19:22;17.70;65.60
21335;DHT22;69435;52.670;13.544;2023-04-23T11:22:15;17.90;64.80
21335;DHT22;69435;52.670;13.544;2023-04-23T11:25:11;18.20;63.60
21335;DHT22;69435;52.670;13.544;2023-04-23T11:28:08;18.50;63.80
21335;DHT22;69435;52.670;13.544;2023-04-23T11:30:54;18.70;61.20
21335;DHT22;69435;52.670;13.544;2023-04-23T11:33:41;18.80;59.50
21335;DHT22;69435;52.670;13.544;2023-04-23T11:36:37;18.90;59.10
21335;DHT22;69435;52.670;13.544;2023-04-23T11:39:30;18.90;58.00
21335;DHT22;69435;52.670;13.544;2023-04-23T11:42:16;18.90;57.30
21335;DHT22;69435;52.670;13.544;2023-04-23T11:45:05;18.80;57.20
21335;DHT22;69435;52.670;13.544;2023-04-23T11:47:53;18.70;57.10
21335;DHT22;69435;52.670;13.544;2023-04-23T11:50:41;18.50;58.00
21335;DHT22;69435;52.670;13.544;2023-04-23T11:53:27;18.50;59.10
21335;DHT22;69435;52.670;13.544;2023-04-23T11:56:17;18.40;58.70
21335;DHT22;69435;52.670;13.544;2023-04-23T11:59:07;18.30;58.80
21335;DHT22;69435;52.670;13.544;2023-04-23T12:01:58;18.10;59.80
21335;DHT22;69435;52.670;13.544;2023-04-23T12:04:45;18.00;60.40
21335;DHT22;69435;52.670;13.544;2023-04-23T12:07:31;17.80;61.10
21335;DHT22;69435;52.670;13.544;2023-04-23T12:10:19;17.70;63.00
21335;DHT22;69435;52.670;13.544;2023-04-23T12:13:23;17.60;63.40
21335;DHT22;69435;52.670;13.544;2023-04-23T12:16:14;17.60;64.10
21335;DHT22;69435;52.670;13.544;2023-04-23T12:19:00;17.60;63.10
21335;DHT22;69435;52.670;13.544;2023-04-23T12:21:57;17.60;63.20
21335;DHT22;69435;52.670;13.544;2023-04-23T12:24:48;17.70;64.20
21335;DHT22;69435;52.670;13.544;2023-04-23T12:27:39;17.80;62.40
21335;DHT22;69435;52.670;13.544;2023-04-23T12:30:31;17.80;61.40
21335;DHT22;69435;52.670;13.544;2023-04-23T12:33:19;17.90;61.70
21335;DHT22;69435;52.670;13.544;2023-04-23T12:36:10;17.90;61.60
21335;DHT22;69435;52.670;13.544;2023-04-23T12:39:24;18.00;62.00
21335;DHT22;69435;52.670;13.544;2023-04-23T12:42:15;18.20;61.60
21335;DHT22;69435;52.670;13.544;2023-04-23T12:45:05;18.40;60.10
21335;DHT22;69435;52.670;13.544;2023-04-23T12:47:52;18.50;59.20
21335;DHT22;69435;52.670;13.544;2023-04-23T12:50:39;18.50;57.80
21335;DHT22;69435;52.670;13.544;2023-04-23T12:53:26;18.50;57.50
21335;DHT22;69435;52.670;13.544;2023-04-23T12:56:12;18.40;57.20
21335;DHT22;69435;52.670;13.544;2023-04-23T12:58:58;18.40;57.70
21335;DHT22;69435;52.670;13.544;2023-04-23T13:01:46;18.40;57.70
21335;DHT22;69435;52.670;13.544;2023-04-23T13:04:34;18.40;58.20
21335;DHT22;69435;52.670;13.544;2023-04-23T13:07:21;18.40;58.10
21335;DHT22;69435;52.670;13.544;2023-04-23T13:10:07;18.40;57.60
21335;DHT22;69435;52.670;13.544;2023-04-23T13:12:53;18.40;58.00
21335;DHT22;69435;52.670;13.544;2023-04-23T13:15:41;18.40;58.00
21335;DHT22;69435;52.670;13.544;2023-04-23T13:18:27;18.40;57.90
21335;DHT22;69435;52.670;13.544;2023-04-23T13:21:13;18.40;58.10
21335;DHT22;69435;52.670;13.544;2023-04-23T13:23:59;18.50;57.20
21335;DHT22;69435;52.670;13.544;2023-04-23T13:26:47;18.50;56.40
21335;DHT22;69435;52.670;13.544;2023-04-23T13:29:39;18.60;56.30
21335;DHT22;69435;52.670;13.544;2023-04-23T13:32:25;18.60;56.00
21335;DHT22;69435;52.670;13.544;2023-04-23T13:35:16;18.60;56.00
21335;DHT22;69435;52.670;13.544;2023-04-23T13:38:03;18.70;56.30
21335;DHT22;69435;52.670;13.544;2023-04-23T13:40:52;18.80;55.80
21335;DHT22;69435;52.670;13.544;2023-04-23T13:43:38;19.00;55.40
21335;DHT22;69435;52.670;13.544;2023-04-23T13:46:24;19.10;56.30
21335;DHT22;69435;52.670;13.544;2023-04-23T13:49:14;19.10;55.90
21335;DHT22;69435;52.670;13.544;2023-04-23T13:52:02;19.30;55.90
21335;DHT22;69435;52.670;13.544;2023-04-23T13:54:51;19.50;54.50
21335;DHT22;69435;52.670;13.544;2023-04-23T13:57:45;19.60;52.80
21335;DHT22;69435;52.670;13.544;2023-04-23T14:00:31;19.80;51.90
21335;DHT22;69435;52.670;13.544;2023-04-23T14:03:18;19.90;52.20
21335;DHT22;69435;52.670;13.544;2023-04-23T14:06:07;20.00;52.10
21335;DHT22;69435;52.670;13.544;2023-04-23T14:08:53;20.10;51.40
21335;DHT22;69435;52.670;13.544;2023-04-23T14:11:39;20.20;50.10
21335;DHT22;69435;52.670;13.544;2023-04-23T14:14:27;20.20;49.90
21335;DHT22;69435;52.670;13.544;2023-04-23T14:17:15;20.10;50.00
21335;DHT22;69435;52.670;13.544;2023-04-23T14:20:01;20.00;49.30
21335;DHT22;69435;52.670;13.544;2023-04-23T14:22:56;19.90;49.30
21335;DHT22;69435;52.670;13.544;2023-04-23T14:25:45;19.90;50.50
21335;DHT22;69435;52.670;13.544;2023-04-23T14:28:40;19.90;49.10
21335;DHT22;69435;52.670;13.544;2023-04-23T14:31:32;19.80;48.90
21335;DHT22;69435;52.670;13.544;2023-04-23T14:34:21;19.70;48.50
21335;DHT22;69435;52.670;13.544;2023-04-23T14:37:09;19.60;48.80
21335;DHT22;69435;52.670;13.544;2023-04-23T14:39:58;19.60;48.50
21335;DHT22;69435;52.670;13.544;2023-04-23T14:42:46;19.50;48.30
21335;DHT22;69435;52.670;13.544;2023-04-23T14:45:33;19.50;49.30
21335;DHT22;69435;52.670;13.544;2023-04-23T14:48:19;19.40;48.50
21335;DHT22;69435;52.670;13.544;2023-04-23T14:51:05;19.30;47.70
21335;DHT22;69435;52.670;13.544;2023-04-23T14:53:51;19.30;47.90
21335;DHT22;69435;52.670;13.544;2023-04-23T14:56:37;19.20;46.90
21335;DHT22;69435;52.670;13.544;2023-04-23T14:59:23;19.20;46.80
21335;DHT22;69435;52.670;13.544;2023-04-23T15:02:10;19.20;46.20
21335;DHT22;69435;52.670;13.544;2023-04-23T15:04:56;19.10;45.00
21335;DHT22;69435;52.670;13.544;2023-04-23T15:07:44;19.10;44.00
21335;DHT22;69435;52.670;13.544;2023-04-23T15:10:30;19.10;45.00
21335;DHT22;69435;52.670;13.544;2023-04-23T15:13:48;19.00;44.70
21335;DHT22;69435;52.670;13.544;2023-04-23T15:16:40;19.10;43.40
21335;DHT22;69435;52.670;13.544;2023-04-23T15:19:29;19.10;43.30
21335;DHT22;69435;52.670;13.544;2023-04-23T15:22:19;19.00;42.80
21335;DHT22;69435;52.670;13.544;2023-04-23T15:25:09;19.00;43.10
21335;DHT22;69435;52.670;13.544;2023-04-23T15:27:56;19.00;42.80
21335;DHT22;69435;52.670;13.544;2023-04-23T15:30:42;19.00;43.70
21335;DHT22;69435;52.670;13.544;2023-04-23T15:33:29;19.00;44.10
21335;DHT22;69435;52.670;13.544;2023-04-23T15:36:16;19.00;42.10
21335;DHT22;69435;52.670;13.544;2023-04-23T15:39:03;19.00;41.60
21335;DHT22;69435;52.670;13.544;2023-04-23T15:41:50;19.00;42.80
21335;DHT22;69435;52.670;13.544;2023-04-23T15:44:38;19.00;42.40
21335;DHT22;69435;52.670;13.544;2023-04-23T15:47:24;19.10;42.80
21335;DHT22;69435;52.670;13.544;2023-04-23T15:50:10;19.00;42.00
21335;DHT22;69435;52.670;13.544;2023-04-23T15:52:57;19.00;42.10
21335;DHT22;69435;52.670;13.544;2023-04-23T15:55:46;19.00;42.80
21335;DHT22;69435;52.670;13.544;2023-04-23T15:58:33;19.00;42.90
21335;DHT22;69435;52.670;13.544;2023-04-23T16:01:19;18.90;42.80
21335;DHT22;69435;52.670;13.544;2023-04-23T16:04:08;18.90;43.50
21335;DHT22;69435;52.670;13.544;2023-04-23T16:06:54;18.90;43.70
21335;DHT22;69435;52.670;13.544;2023-04-23T16:09:43;18.80;43.20
21335;DHT22;69435;52.670;13.544;2023-04-23T16:12:32;18.80;42.80
21335;DHT22;69435;52.670;13.544;2023-04-23T16:15:18;18.80;42.00
21335;DHT22;69435;52.670;13.544;2023-04-23T16:18:04;18.70;42.50
21335;DHT22;69435;52.670;13.544;2023-04-23T16:20:50;18.70;43.30
21335;DHT22;69435;52.670;13.544;2023-04-23T16:23:37;18.70;42.90
21335;DHT22;69435;52.670;13.544;2023-04-23T16:26:23;18.60;42.90
21335;DHT22;69435;52.670;13.544;2023-04-23T16:29:09;18.60;41.40
21335;DHT22;69435;52.670;13.544;2023-04-23T16:31:55;18.50;42.20
21335;DHT22;69435;52.670;13.544;2023-04-23T16:34:44;18.50;42.90
21335;DHT22;69435;52.670;13.544;2023-04-23T16:37:38;18.50;43.50
21335;DHT22;69435;52.670;13.544;2023-04-23T16:40:24;18.40;43.80
21335;DHT22;69435;52.670;13.544;2023-04-23T16:43:10;18.40;43.10
21335;DHT22;69435;52.670;13.544;2023-04-23T16:45:56;18.40;42.60
21335;DHT22;69435;52.670;13.544;2023-04-23T16:48:44;18.30;43.10
21335;DHT22;69435;52.670;13.544;2023-04-23T16:51:30;18.30;43.20
21335;DHT22;69435;52.670;13.544;2023-04-23T16:54:17;18.20;43.60
21335;DHT22;69435;52.670;13.544;2023-04-23T16:57:03;18.20;44.20
21335;DHT22;69435;52.670;13.544;2023-04-23T16:59:51;18.20;45.50
21335;DHT22;69435;52.670;13.544;2023-04-23T17:02:37;18.10;46.80
21335;DHT22;69435;52.670;13.544;2023-04-23T17:05:31;18.10;48.20
21335;DHT22;69435;52.670;13.544;2023-04-23T17:08:19;18.00;48.10
21335;DHT22;69435;52.670;13.544;2023-04-23T17:11:05;17.90;48.00
21335;DHT22;69435;52.670;13.544;2023-04-23T17:13:51;17.90;48.00
21335;DHT22;69435;52.670;13.544;2023-04-23T17:19:09;17.70;47.50
21335;DHT22;69435;52.670;13.544;2023-04-23T17:22:00;17.70;48.30
21335;DHT22;69435;52.670;13.544;2023-04-23T17:24:53;17.50;48.70
21335;DHT22;69435;52.670;13.544;2023-04-23T17:27:41;17.40;50.10
21335;DHT22;69435;52.670;13.544;2023-04-23T17:30:27;17.40;51.60
21335;DHT22;69435;52.670;13.544;2023-04-23T17:33:13;17.20;52.20
21335;DHT22;69435;52.670;13.544;2023-04-23T17:36:05;17.10;52.60
21335;DHT22;69435;52.670;13.544;2023-04-23T17:38:58;17.00;53.10
21335;DHT22;69435;52.670;13.544;2023-04-23T17:41:46;16.90;53.00
21335;DHT22;69435;52.670;13.544;2023-04-23T17:44:34;16.90;53.40
21335;DHT22;69435;52.670;13.544;2023-04-23T17:47:21;16.80;53.80
21335;DHT22;69435;52.670;13.544;2023-04-23T17:50:07;16.70;53.90
21335;DHT22;69435;52.670;13.544;2023-04-23T17:52:56;16.70;54.80
21335;DHT22;69435;52.670;13.544;2023-04-23T17:55:42;16.60;55.60
21335;DHT22;69435;52.670;13.544;2023-04-23T17:58:28;16.60;55.80
21335;DHT22;69435;52.670;13.544;2023-04-23T18:01:23;16.50;56.20
21335;DHT22;69435;52.670;13.544;2023-04-23T18:04:09;16.40;56.40
21335;DHT22;69435;52.670;13.544;2023-04-23T18:06:55;16.40;56.60
21335;DHT22;69435;52.670;13.544;2023-04-23T18:09:41;16.30;56.70
21335;DHT22;69435;52.670;13.544;2023-04-23T18:12:31;16.30;56.90
21335;DHT22;69435;52.670;13.544;2023-04-23T18:15:25;16.20;56.60
21335;DHT22;69435;52.670;13.544;2023-04-23T18:18:17;16.20;55.70
21335;DHT22;69435;52.670;13.544;2023-04-23T18:21:04;16.20;54.50
21335;DHT22;69435;52.670;13.544;2023-04-23T18:27:58;16.10;53.60
21335;DHT22;69435;52.670;13.544;2023-04-23T18:30:46;16.00;55.00
21335;DHT22;69435;52.670;13.544;2023-04-23T18:33:39;15.90;56.00
21335;DHT22;69435;52.670;13.544;2023-04-23T18:36:36;15.80;55.90
21335;DHT22;69435;52.670;13.544;2023-04-23T18:39:26;15.70;56.00
21335;DHT22;69435;52.670;13.544;2023-04-23T18:42:14;15.60;56.20
21335;DHT22;69435;52.670;13.544;2023-04-23T18:45:00;15.50;56.30
21335;DHT22;69435;52.670;13.544;2023-04-23T18:47:56;15.40;56.80
21335;DHT22;69435;52.670;13.544;2023-04-23T18:50:54;15.30;57.60
21335;DHT22;69435;52.670;13.544;2023-04-23T18:53:42;15.20;58.10
21335;DHT22;69435;52.670;13.544;2023-04-23T18:56:29;15.10;58.50
21335;DHT22;69435;52.670;13.544;2023-04-23T18:59:15;15.00;58.50
21335;DHT22;69435;52.670;13.544;2023-04-23T19:02:05;14.90;58.10
21335;DHT22;69435;52.670;13.544;2023-04-23T19:04:52;14.80;57.80
21335;DHT22;69435;52.670;13.544;2023-04-23T19:07:38;14.70;57.90
21335;DHT22;69435;52.670;13.544;2023-04-23T19:10:25;14.60;58.10
21335;DHT22;69435;52.670;13.544;2023-04-23T19:13:11;14.60;58.70
21335;DHT22;69435;52.670;13.544;2023-04-23T19:15:58;14.40;59.00
21335;DHT22;69435;52.670;13.544;2023-04-23T19:18:46;14.40;58.90
21335;DHT22;69435;52.670;13.544;2023-04-23T19:21:37;14.30;58.90
21335;DHT22;69435;52.670;13.544;2023-04-23T19:24:27;14.30;58.90
21335;DHT22;69435;52.670;13.544;2023-04-23T19:27:16;14.20;59.10
21335;DHT22;69435;52.670;13.544;2023-04-23T19:30:03;14.20;59.20
21335;DHT22;69435;52.670;13.544;2023-04-23T19:32:52;14.10;59.10
21335;DHT22;69435;52.670;13.544;2023-04-23T19:35:39;14.00;59.30
21335;DHT22;69435;52.670;13.544;2023-04-23T19:38:31;13.90;59.50
21335;DHT22;69435;52.670;13.544;2023-04-23T19:41:19;13.90;59.50
21335;DHT22;69435;52.670;13.544;2023-04-23T19:48:07;13.70;59.30
21335;DHT22;69435;52.670;13.544;2023-04-23T21:05:22;12.50;62.60
21335;DHT22;69435;52.670;13.544;2023-04-23T21:08:10;12.40;62.90
